sensor_id;sensor_type;location;lat;lon;timestamp;pressure;altitude;pressure_sealevel;temperature;humidity
68179;BME280;54998;42.656;23.382;2023-03-26T00:09:15;94350.94;;;9.06;63.34
68179;BME280;54998;42.656;23.382;2023-03-26T00:11:44;94344.19;;;8.87;63.68
68179;BME280;54998;42.656;23.382;2023-03-26T00:14:16;94356.00;;;8.98;63.93
68179;BME280;54998;42.656;23.382;2023-03-26T00:16:51;94354.72;;;9.02;63.59
68179;BME280;54998;42.656;23.382;2023-03-26T00:19:25;94343.56;;;8.75;63.74
68179;BME280;54998;42.656;23.382;2023-03-26T00:21:57;94341.28;;;8.72;64.34
68179;BME280;54998;42.656;23.382;2023-03-26T00:24:24;94336.28;;;8.80;64.00
68179;BME280;54998;42.656;23.382;2023-03-26T00:26:59;94341.88;;;8.94;63.81
68179;BME280;54998;42.656;23.382;2023-03-26T00:29:32;94335.00;;;8.94;63.46
68179;BME280;54998;42.656;23.382;2023-03-26T00:31:59;94323.06;;;8.85;63.39
68179;BME280;54998;42.656;23.382;2023-03-26T00:34:28;94330.66;;;8.95;63.25
68179;BME280;54998;42.656;23.382;2023-03-26T00:36:56;94327.31;;;8.94;63.45
68179;BME280;54998;42.656;23.382;2023-03-26T00:39:28;94317.69;;;8.78;63.87
68179;BME280;54998;42.656;23.382;2023-03-26T00:41:57;94321.44;;;8.84;63.55
68179;BME280;54998;42.656;23.382;2023-03-26T00:44:23;94327.78;;;8.80;64.12
68179;BME280;54998;42.656;23.382;2023-03-26T00:46:51;94309.03;;;8.61;64.22
68179;BME280;54998;42.656;23.382;2023-03-26T00:49:16;94323.38;;;8.72;63.71
68179;BME280;54998;42.656;23.382;2023-03-26T00:51:42;94320.00;;;8.72;63.67
68179;BME280;54998;42.656;23.382;2023-03-26T00:54:08;94323.72;;;8.50;64.11
68179;BME280;54998;42.656;23.382;2023-03-26T00:56:37;94319.91;;;8.63;63.89
68179;BME280;54998;42.656;23.382;2023-03-26T00:59:02;94299.28;;;8.65;63.70
68179;BME280;54998;42.656;23.382;2023-03-26T01:01:28;94314.38;;;8.68;63.35
68179;BME280;54998;42.656;23.382;2023-03-26T01:04:18;94316.28;;;8.66;63.03
68179;BME280;54998;42.656;23.382;2023-03-26T01:06:43;94322.53;;;8.81;62.38
68179;BME280;54998;42.656;23.382;2023-03-26T01:09:15;94319.72;;;8.75;62.18
68179;BME280;54998;42.656;23.382;2023-03-26T01:11:41;94327.28;;;8.76;61.98
68179;BME280;54998;42.656;23.382;2023-03-26T01:14:13;94326.03;;;8.80;61.50
68179;BME280;54998;42.656;23.382;2023-03-26T01:16:52;94326.53;;;8.84;61.15
68179;BME280;54998;42.656;23.382;2023-03-26T01:21:50;94335.25;;;8.91;60.97
68179;BME280;54998;42.656;23.382;2023-03-26T01:24:16;94333.00;;;8.88;61.20
68179;BME280;54998;42.656;23.382;2023-03-26T01:35:15;94349.16;;;8.61;62.19
68179;BME280;54998;42.656;23.382;2023-03-26T01:41:07;94352.63;;;8.60;62.57
68179;BME280;54998;42.656;23.382;2023-03-26T01:43:53;94348.63;;;8.57;63.03
68179;BME280;54998;42.656;23.382;2023-03-26T01:46:24;94350.63;;;8.54;63.12
68179;BME280;54998;42.656;23.382;2023-03-26T01:48:51;94363.31;;;8.46;63.88
68179;BME280;54998;42.656;23.382;2023-03-26T01:51:30;94361.28;;;8.49;63.96
68179;BME280;54998;42.656;23.382;2023-03-26T01:53:56;94368.16;;;8.49;64.15
68179;BME280;54998;42.656;23.382;2023-03-26T02:07:24;94350.25;;;8.49;65.18
68179;BME280;54998;42.656;23.382;2023-03-26T02:56:03;94360.94;;;7.95;67.93
68179;BME280;54998;42.656;23.382;2023-03-26T02:58:29;94364.19;;;7.97;68.09
68179;BME280;54998;42.656;23.382;2023-03-26T03:00:55;94363.41;;;7.87;68.58
68179;BME280;54998;42.656;23.382;2023-03-26T03:03:25;94375.06;;;7.80;69.04
68179;BME280;54998;42.656;23.382;2023-03-26T03:05:52;94376.56;;;7.73;69.31
68179;BME280;54998;42.656;23.382;2023-03-26T03:08:19;94386.91;;;7.71;69.35
68179;BME280;54998;42.656;23.382;2023-03-26T03:10:58;94401.31;;;7.72;68.56
68179;BME280;54998;42.656;23.382;2023-03-26T03:13:23;94403.19;;;7.70;68.66
68179;BME280;54998;42.656;23.382;2023-03-26T03:15:49;94384.91;;;7.75;68.29
68179;BME280;54998;42.656;23.382;2023-03-26T03:18:14;94384.09;;;7.74;68.12
68179;BME280;54998;42.656;23.382;2023-03-26T03:20:40;94398.88;;;7.71;68.23
68179;BME280;54998;42.656;23.382;2023-03-26T03:23:05;94400.22;;;7.65;68.31
68179;BME280;54998;42.656;23.382;2023-03-26T03:25:31;94410.56;;;7.64;68.17
68179;BME280;54998;42.656;23.382;2023-03-26T03:27:57;94415.13;;;7.70;68.32
68179;BME280;54998;42.656;23.382;2023-03-26T03:30:23;94413.66;;;7.57;68.39
68179;BME280;54998;42.656;23.382;2023-03-26T03:32:48;94409.34;;;7.58;68.62
68179;BME280;54998;42.656;23.382;2023-03-26T03:35:14;94424.13;;;7.54;68.86
68179;BME280;54998;42.656;23.382;2023-03-26T03:37:39;94420.88;;;7.52;68.78
68179;BME280;54998;42.656;23.382;2023-03-26T03:40:05;94416.56;;;7.43;68.76
68179;BME280;54998;42.656;23.382;2023-03-26T03:42:32;94406.25;;;7.45;68.76
68179;BME280;54998;42.656;23.382;2023-03-26T03:44:57;94397.63;;;7.36;69.12
68179;BME280;54998;42.656;23.382;2023-03-26T03:47:23;94411.59;;;7.41;68.95
68179;BME280;54998;42.656;23.382;2023-03-26T03:49:48;94404.63;;;7.34;68.89
68179;BME280;54998;42.656;23.382;2023-03-26T03:52:14;94403.13;;;7.31;69.21
68179;BME280;54998;42.656;23.382;2023-03-26T03:54:40;94396.91;;;7.24;69.28
68179;BME280;54998;42.656;23.382;2023-03-26T03:57:06;94400.69;;;7.30;69.61
68179;BME280;54998;42.656;23.382;2023-03-26T03:59:31;94399.78;;;7.31;69.08
68179;BME280;54998;42.656;23.382;2023-03-26T04:01:57;94400.03;;;7.28;69.64
68179;BME280;54998;42.656;23.382;2023-03-26T04:04:22;94401.25;;;7.33;69.24
68179;BME280;54998;42.656;23.382;2023-03-26T04:06:49;94407.00;;;7.26;69.46
68179;BME280;54998;42.656;23.382;2023-03-26T04:09:15;94424.09;;;7.35;69.64
68179;BME280;54998;42.656;23.382;2023-03-26T04:11:46;94426.13;;;7.41;69.29
68179;BME280;54998;42.656;23.382;2023-03-26T04:14:12;94439.00;;;7.30;69.79
68179;BME280;54998;42.656;23.382;2023-03-26T04:16:37;94437.78;;;7.34;69.39
68179;BME280;54998;42.656;23.382;2023-03-26T04:19:03;94449.78;;;7.43;69.27
68179;BME280;54998;42.656;23.382;2023-03-26T04:21:28;94457.81;;;7.38;69.30
68179;BME280;54998;42.656;23.382;2023-03-26T04:23:58;94463.72;;;7.39;69.41
68179;BME280;54998;42.656;23.382;2023-03-26T04:26:26;94475.97;;;7.35;69.38
68179;BME280;54998;42.656;23.382;2023-03-26T04:28:59;94476.75;;;7.36;69.57
68179;BME280;54998;42.656;23.382;2023-03-26T04:31:27;94475.22;;;7.24;69.58
68179;BME280;54998;42.656;23.382;2023-03-26T04:34:06;94495.44;;;7.36;69.33
68179;BME280;54998;42.656;23.382;2023-03-26T04:36:34;94480.00;;;7.38;69.39
68179;BME280;54998;42.656;23.382;2023-03-26T04:39:01;94488.88;;;7.44;69.40
68179;BME280;54998;42.656;23.382;2023-03-26T04:41:30;94495.56;;;7.35;69.41
68179;BME280;54998;42.656;23.382;2023-03-26T04:43:57;94507.53;;;7.34;69.42
68179;BME280;54998;42.656;23.382;2023-03-26T04:46:26;94504.28;;;7.32;69.65
68179;BME280;54998;42.656;23.382;2023-03-26T04:48:52;94506.44;;;7.27;69.78
68179;BME280;54998;42.656;23.382;2023-03-26T04:51:25;94509.53;;;7.31;69.31
68179;BME280;54998;42.656;23.382;2023-03-26T04:53:57;94517.19;;;7.31;69.49
68179;BME280;54998;42.656;23.382;2023-03-26T04:56:58;94509.38;;;7.32;69.54
68179;BME280;54998;42.656;23.382;2023-03-26T04:59:29;94518.97;;;7.40;68.99
68179;BME280;54998;42.656;23.382;2023-03-26T05:02:01;94516.38;;;7.30;69.29
68179;BME280;54998;42.656;23.382;2023-03-26T05:04:29;94514.09;;;7.37;68.28
68179;BME280;54998;42.656;23.382;2023-03-26T05:06:56;94511.34;;;7.50;67.73
68179;BME280;54998;42.656;23.382;2023-03-26T05:09:26;94510.59;;;7.69;66.65
68179;BME280;54998;42.656;23.382;2023-03-26T05:11:52;94505.66;;;8.06;66.01
68179;BME280;54998;42.656;23.382;2023-03-26T05:14:17;94514.50;;;8.99;61.50
68179;BME280;54998;42.656;23.382;2023-03-26T05:16:44;94518.97;;;9.72;58.77
68179;BME280;54998;42.656;23.382;2023-03-26T05:19:11;94527.00;;;10.33;56.58
68179;BME280;54998;42.656;23.382;2023-03-26T05:21:36;94523.56;;;11.12;54.08
68179;BME280;54998;42.656;23.382;2023-03-26T05:24:05;94532.59;;;11.85;51.75
68179;BME280;54998;42.656;23.382;2023-03-26T05:26:35;94510.75;;;11.46;52.04
68179;BME280;54998;42.656;23.382;2023-03-26T05:29:02;94533.09;;;10.94;53.64
68179;BME280;54998;42.656;23.382;2023-03-26T05:31:32;94527.81;;;11.21;53.28
68179;BME280;54998;42.656;23.382;2023-03-26T05:33:58;94524.16;;;11.66;52.48
68179;BME280;54998;42.656;23.382;2023-03-26T05:36:27;94533.75;;;11.22;53.16
68179;BME280;54998;42.656;23.382;2023-03-26T05:38:53;94537.97;;;11.05;54.18
68179;BME280;54998;42.656;23.382;2023-03-26T05:41:18;94542.44;;;11.03;54.57
68179;BME280;54998;42.656;23.382;2023-03-26T05:43:44;94531.28;;;11.81;52.34
68179;BME280;54998;42.656;23.382;2023-03-26T05:46:14;94533.28;;;11.26;53.98
68179;BME280;54998;42.656;23.382;2023-03-26T05:48:46;94521.16;;;13.28;48.53
68179;BME280;54998;42.656;23.382;2023-03-26T05:51:12;94546.13;;;12.79;49.66
68179;BME280;54998;42.656;23.382;2023-03-26T05:53:40;94529.06;;;13.10;48.20
68179;BME280;54998;42.656;23.382;2023-03-26T05:56:11;94554.47;;;13.22;48.56
68179;BME280;54998;42.656;23.382;2023-03-26T05:58:37;94544.66;;;13.25;47.79
68179;BME280;54998;42.656;23.382;2023-03-26T06:01:07;94539.31;;;13.27;49.17
68179;BME280;54998;42.656;23.382;2023-03-26T06:03:35;94528.19;;;14.76;44.91
68179;BME280;54998;42.656;23.382;2023-03-26T06:06:01;94518.44;;;14.63;44.05
68179;BME280;54998;42.656;23.382;2023-03-26T06:08:30;94521.22;;;14.30;45.31
68179;BME280;54998;42.656;23.382;2023-03-26T06:11:04;94518.94;;;15.64;41.93
68179;BME280;54998;42.656;23.382;2023-03-26T06:13:32;94535.00;;;15.45;42.59
68179;BME280;54998;42.656;23.382;2023-03-26T06:15:58;94531.16;;;16.00;41.00
68179;BME280;54998;42.656;23.382;2023-03-26T06:18:24;94524.81;;;15.43;41.33
68179;BME280;54998;42.656;23.382;2023-03-26T06:20:52;94528.72;;;14.71;42.13
68179;BME280;54998;42.656;23.382;2023-03-26T06:23:18;94513.34;;;13.53;44.77
68179;BME280;54998;42.656;23.382;2023-03-26T06:25:44;94523.38;;;14.73;42.51
68179;BME280;54998;42.656;23.382;2023-03-26T06:28:11;94522.81;;;13.69;44.45
68179;BME280;54998;42.656;23.382;2023-03-26T06:30:37;94527.44;;;13.82;44.23
68179;BME280;54998;42.656;23.382;2023-03-26T06:33:10;94522.94;;;15.07;41.75
68179;BME280;54998;42.656;23.382;2023-03-26T06:35:36;94527.13;;;16.12;38.92
68179;BME280;54998;42.656;23.382;2023-03-26T06:38:03;94528.81;;;14.55;42.52
68179;BME280;54998;42.656;23.382;2023-03-26T06:40:29;94525.50;;;13.36;44.23
68179;BME280;54998;42.656;23.382;2023-03-26T06:42:55;94534.66;;;13.86;43.58
68179;BME280;54998;42.656;23.382;2023-03-26T06:45:24;94529.09;;;16.10;39.61
68179;BME280;54998;42.656;23.382;2023-03-26T06:47:51;94519.06;;;17.08;36.50
68179;BME280;54998;42.656;23.382;2023-03-26T06:50:17;94537.66;;;16.47;37.60
68179;BME280;54998;42.656;23.382;2023-03-26T06:52:43;94539.38;;;15.89;38.77
68179;BME280;54998;42.656;23.382;2023-03-26T06:55:32;94524.72;;;16.90;36.40
68179;BME280;54998;42.656;23.382;2023-03-26T06:58:06;94548.00;;;16.47;36.90
68179;BME280;54998;42.656;23.382;2023-03-26T07:00:34;94536.41;;;17.08;35.82
68179;BME280;54998;42.656;23.382;2023-03-26T07:03:07;94544.09;;;15.70;38.85
68179;BME280;54998;42.656;23.382;2023-03-26T07:05:36;94556.56;;;17.69;35.24
68179;BME280;54998;42.656;23.382;2023-03-26T07:08:03;94557.88;;;17.23;36.15
68179;BME280;54998;42.656;23.382;2023-03-26T07:10:32;94562.47;;;16.99;36.53
68179;BME280;54998;42.656;23.382;2023-03-26T07:12:57;94555.75;;;15.74;36.88
68179;BME280;54998;42.656;23.382;2023-03-26T07:15:23;94563.78;;;16.52;36.29
68179;BME280;54998;42.656;23.382;2023-03-26T07:17:48;94567.50;;;15.77;37.58
68179;BME280;54998;42.656;23.382;2023-03-26T07:20:14;94549.28;;;15.70;38.27
68179;BME280;54998;42.656;23.382;2023-03-26T07:22:39;94555.34;;;16.07;37.83
68179;BME280;54998;42.656;23.382;2023-03-26T07:25:05;94546.94;;;16.41;37.38
68179;BME280;54998;42.656;23.382;2023-03-26T07:27:43;94549.06;;;16.53;36.78
68179;BME280;54998;42.656;23.382;2023-03-26T07:32:43;94544.31;;;18.39;33.28
68179;BME280;54998;42.656;23.382;2023-03-26T07:40:19;94541.63;;;17.71;33.54
68179;BME280;54998;42.656;23.382;2023-03-26T07:43:20;94531.38;;;17.91;33.49
68179;BME280;54998;42.656;23.382;2023-03-26T07:45:50;94530.25;;;19.41;30.85
68179;BME280;54998;42.656;23.382;2023-03-26T07:48:20;94546.00;;;18.73;31.50
68179;BME280;54998;42.656;23.382;2023-03-26T07:50:50;94537.09;;;18.27;32.56
68179;BME280;54998;42.656;23.382;2023-03-26T07:53:15;94538.41;;;18.72;31.45
68179;BME280;54998;42.656;23.382;2023-03-26T07:58:55;94544.09;;;15.70;37.26
68179;BME280;54998;42.656;23.382;2023-03-26T08:07:04;94536.66;;;19.39;30.90
68179;BME280;54998;42.656;23.382;2023-03-26T08:20:43;94528.94;;;21.56;26.38
68179;BME280;54998;42.656;23.382;2023-03-26T08:26:24;94525.88;;;23.99;22.70
68179;BME280;54998;42.656;23.382;2023-03-26T08:31:28;94532.50;;;23.08;23.99
68179;BME280;54998;42.656;23.382;2023-03-26T08:33:57;94532.50;;;23.20;23.48
68179;BME280;54998;42.656;23.382;2023-03-26T08:36:22;94534.00;;;19.59;27.55
68179;BME280;54998;42.656;23.382;2023-03-26T08:38:48;94536.88;;;20.54;25.97
68179;BME280;54998;42.656;23.382;2023-03-26T08:54:54;94519.56;;;17.88;29.17
68179;BME280;54998;42.656;23.382;2023-03-26T09:03:38;94512.34;;;23.44;23.15
68179;BME280;54998;42.656;23.382;2023-03-26T09:49:42;94493.28;;;22.89;21.88
68179;BME280;54998;42.656;23.382;2023-03-26T09:52:42;94469.81;;;21.18;23.16
68179;BME280;54998;42.656;23.382;2023-03-26T10:00:55;94477.63;;;21.99;22.85
68179;BME280;54998;42.656;23.382;2023-03-26T10:09:02;94469.69;;;20.24;23.44
68179;BME280;54998;42.656;23.382;2023-03-26T10:16:51;94447.41;;;21.10;23.31
68179;BME280;54998;42.656;23.382;2023-03-26T10:22:08;94447.53;;;22.68;21.00
68179;BME280;54998;42.656;23.382;2023-03-26T10:30:36;94430.41;;;20.83;22.26
68179;BME280;54998;42.656;23.382;2023-03-26T10:33:21;94421.66;;;23.26;20.40
68179;BME280;54998;42.656;23.382;2023-03-26T10:35:55;94406.03;;;20.96;22.60
68179;BME280;54998;42.656;23.382;2023-03-26T10:46:31;94411.16;;;21.94;20.56
68179;BME280;54998;42.656;23.382;2023-03-26T10:49:09;94401.72;;;22.89;20.46
68179;BME280;54998;42.656;23.382;2023-03-26T10:54:43;94403.94;;;21.60;21.55
68179;BME280;54998;42.656;23.382;2023-03-26T10:57:38;94395.13;;;24.32;18.55
68179;BME280;54998;42.656;23.382;2023-03-26T11:00:32;94391.44;;;20.88;21.63
68179;BME280;54998;42.656;23.382;2023-03-26T11:03:30;94387.84;;;23.01;19.59
68179;BME280;54998;42.656;23.382;2023-03-26T11:15:05;94395.78;;;22.47;20.21
68179;BME280;54998;42.656;23.382;2023-03-26T11:34:21;94361.00;;;21.74;19.32
68179;BME280;54998;42.656;23.382;2023-03-26T11:36:53;94354.06;;;22.52;19.10
68179;BME280;54998;42.656;23.382;2023-03-26T11:39:26;94357.88;;;23.84;17.20
68179;BME280;54998;42.656;23.382;2023-03-26T11:42:06;94362.38;;;22.49;18.62
68179;BME280;54998;42.656;23.382;2023-03-26T11:44:43;94345.41;;;23.63;17.82
68179;BME280;54998;42.656;23.382;2023-03-26T11:47:14;94344.50;;;22.34;18.60
68179;BME280;54998;42.656;23.382;2023-03-26T11:49:44;94338.41;;;22.22;18.81
68179;BME280;54998;42.656;23.382;2023-03-26T11:52:11;94324.13;;;22.24;19.37
68179;BME280;54998;42.656;23.382;2023-03-26T11:54:39;94320.38;;;21.90;19.04
68179;BME280;54998;42.656;23.382;2023-03-26T11:57:08;94309.31;;;20.97;20.23
68179;BME280;54998;42.656;23.382;2023-03-26T11:59:41;94286.53;;;20.24;20.29
68179;BME280;54998;42.656;23.382;2023-03-26T12:04:37;94300.06;;;21.50;18.35
68179;BME280;54998;42.656;23.382;2023-03-26T12:10:04;94291.75;;;23.36;17.26
68179;BME280;54998;42.656;23.382;2023-03-26T12:12:33;94286.28;;;22.74;18.26
68179;BME280;54998;42.656;23.382;2023-03-26T12:15:01;94289.25;;;23.01;18.00
68179;BME280;54998;42.656;23.382;2023-03-26T12:17:32;94285.38;;;21.79;18.41
68179;BME280;54998;42.656;23.382;2023-03-26T12:19:59;94275.88;;;18.85;21.20
68179;BME280;54998;42.656;23.382;2023-03-26T12:27:33;94256.50;;;20.65;18.99
68179;BME280;54998;42.656;23.382;2023-03-26T12:32:51;94256.06;;;22.66;17.09
68179;BME280;54998;42.656;23.382;2023-03-26T12:35:28;94237.41;;;22.04;17.99
68179;BME280;54998;42.656;23.382;2023-03-26T12:38:11;94243.41;;;21.92;18.58
68179;BME280;54998;42.656;23.382;2023-03-26T12:40:37;94241.66;;;21.63;18.38
68179;BME280;54998;42.656;23.382;2023-03-26T12:43:19;94229.13;;;20.49;19.18
68179;BME280;54998;42.656;23.382;2023-03-26T12:45:49;94224.63;;;20.19;19.25
68179;BME280;54998;42.656;23.382;2023-03-26T12:48:16;94229.13;;;19.87;19.25
68179;BME280;54998;42.656;23.382;2023-03-26T13:01:53;94209.94;;;20.25;16.91
68179;BME280;54998;42.656;23.382;2023-03-26T13:04:41;94202.34;;;18.64;17.81
68179;BME280;54998;42.656;23.382;2023-03-26T13:07:24;94216.81;;;17.40;19.05
68179;BME280;54998;42.656;23.382;2023-03-26T13:13:46;94216.38;;;16.62;20.59
68179;BME280;54998;42.656;23.382;2023-03-26T13:24:37;94211.94;;;16.14;20.01
68179;BME280;54998;42.656;23.382;2023-03-26T13:27:21;94203.69;;;16.39;20.12
68179;BME280;54998;42.656;23.382;2023-03-26T13:38:22;94197.78;;;16.10;19.38
68179;BME280;54998;42.656;23.382;2023-03-26T13:46:39;94198.56;;;16.11;20.40
68179;BME280;54998;42.656;23.382;2023-03-26T13:49:26;94193.81;;;16.14;20.24
68179;BME280;54998;42.656;23.382;2023-03-26T13:52:01;94183.66;;;15.85;20.14
68179;BME280;54998;42.656;23.382;2023-03-26T13:57:08;94184.72;;;15.69;19.25
68179;BME280;54998;42.656;23.382;2023-03-26T14:02:30;94179.16;;;15.93;20.23
68179;BME280;54998;42.656;23.382;2023-03-26T14:05:04;94184.28;;;15.87;20.67
68179;BME280;54998;42.656;23.382;2023-03-26T14:08:03;94187.63;;;16.15;21.05
68179;BME280;54998;42.656;23.382;2023-03-26T14:10:40;94179.84;;;16.09;18.67
68179;BME280;54998;42.656;23.382;2023-03-26T14:16:10;94146.78;;;16.11;18.96
68179;BME280;54998;42.656;23.382;2023-03-26T14:32:51;94163.47;;;16.01;20.23
68179;BME280;54998;42.656;23.382;2023-03-26T14:49:08;94160.84;;;15.67;21.81
68179;BME280;54998;42.656;23.382;2023-03-26T14:52:00;94153.59;;;15.55;22.49
68179;BME280;54998;42.656;23.382;2023-03-26T14:54:30;94163.38;;;15.60;22.85
68179;BME280;54998;42.656;23.382;2023-03-26T15:00:00;94159.00;;;15.60;23.41
68179;BME280;54998;42.656;23.382;2023-03-26T15:02:49;94170.00;;;15.69;23.71
68179;BME280;54998;42.656;23.382;2023-03-26T15:08:55;94167.72;;;15.53;23.65
68179;BME280;54998;42.656;23.382;2023-03-26T15:26:01;94174.75;;;15.16;22.65
68179;BME280;54998;42.656;23.382;2023-03-26T15:31:43;94171.03;;;15.04;22.47
68179;BME280;54998;42.656;23.382;2023-03-26T15:45:40;94178.22;;;14.87;23.02
68179;BME280;54998;42.656;23.382;2023-03-26T15:53:51;94184.41;;;14.71;24.58
68179;BME280;54998;42.656;23.382;2023-03-26T15:57:00;94179.34;;;14.63;24.96
68179;BME280;54998;42.656;23.382;2023-03-26T16:04:59;94173.47;;;14.54;24.42
68179;BME280;54998;42.656;23.382;2023-03-26T16:18:33;94178.94;;;14.29;25.51
68179;BME280;54998;42.656;23.382;2023-03-26T16:26:23;94190.03;;;14.15;26.56
68179;BME280;54998;42.656;23.382;2023-03-26T16:31:30;94199.56;;;14.00;26.88
68179;BME280;54998;42.656;23.382;2023-03-26T16:36:43;94196.34;;;13.83;27.33
68179;BME280;54998;42.656;23.382;2023-03-26T16:39:18;94199.69;;;13.68;27.45
68179;BME280;54998;42.656;23.382;2023-03-26T16:42:21;94207.25;;;13.70;28.03
68179;BME280;54998;42.656;23.382;2023-03-26T16:45:20;94214.41;;;13.60;28.04
68179;BME280;54998;42.656;23.382;2023-03-26T16:53:54;94200.09;;;13.57;27.77
68179;BME280;54998;42.656;23.382;2023-03-26T16:56:32;94203.22;;;13.52;27.86
68179;BME280;54998;42.656;23.382;2023-03-26T16:59:30;94209.25;;;13.45;28.45
68179;BME280;54998;42.656;23.382;2023-03-26T17:02:22;94204.59;;;13.40;28.43
68179;BME280;54998;42.656;23.382;2023-03-26T17:04:56;94205.09;;;13.35;28.46
68179;BME280;54998;42.656;23.382;2023-03-26T17:07:51;94208.19;;;13.31;28.55
68179;BME280;54998;42.656;23.382;2023-03-26T17:13:10;94212.25;;;13.25;29.01
68179;BME280;54998;42.656;23.382;2023-03-26T17:16:07;94211.28;;;13.26;28.92
68179;BME280;54998;42.656;23.382;2023-03-26T17:21:19;94217.66;;;13.39;29.03
68179;BME280;54998;42.656;23.382;2023-03-26T17:24:09;94216.81;;;13.15;30.24
68179;BME280;54998;42.656;23.382;2023-03-26T17:26:47;94229.97;;;12.97;31.03
68179;BME280;54998;42.656;23.382;2023-03-26T17:32:04;94226.97;;;12.85;31.36
68179;BME280;54998;42.656;23.382;2023-03-26T17:42:30;94224.38;;;12.62;32.07
68179;BME280;54998;42.656;23.382;2023-03-26T17:48:21;94220.69;;;12.57;32.06
68179;BME280;54998;42.656;23.382;2023-03-26T17:50:58;94217.31;;;12.56;32.11
68179;BME280;54998;42.656;23.382;2023-03-26T17:53:29;94213.66;;;12.42;32.31
68179;BME280;54998;42.656;23.382;2023-03-26T17:56:01;94217.53;;;12.38;32.45
68179;BME280;54998;42.656;23.382;2023-03-26T17:58:49;94214.53;;;12.26;32.94
68179;BME280;54998;42.656;23.382;2023-03-26T18:01:28;94211.97;;;12.18;33.30
68179;BME280;54998;42.656;23.382;2023-03-26T18:04:02;94212.53;;;11.97;33.65
68179;BME280;54998;42.656;23.382;2023-03-26T18:17:30;94215.75;;;11.50;34.45
68179;BME280;54998;42.656;23.382;2023-03-26T18:20:04;94218.94;;;11.27;34.48
68179;BME280;54998;42.656;23.382;2023-03-26T18:22:34;94212.22;;;11.26;34.95
68179;BME280;54998;42.656;23.382;2023-03-26T18:25:02;94211.06;;;11.21;35.06
68179;BME280;54998;42.656;23.382;2023-03-26T18:27:39;94204.50;;;11.26;34.71
68179;BME280;54998;42.656;23.382;2023-03-26T18:33:13;94202.91;;;11.34;34.36
68179;BME280;54998;42.656;23.382;2023-03-26T18:38:05;94186.53;;;11.35;34.37
68179;BME280;54998;42.656;23.382;2023-03-26T18:40:32;94189.91;;;11.35;33.64
68179;BME280;54998;42.656;23.382;2023-03-26T18:42:58;94184.13;;;11.33;33.72
68179;BME280;54998;42.656;23.382;2023-03-26T18:48:00;94183.16;;;11.42;33.60
68179;BME280;54998;42.656;23.382;2023-03-26T18:50:39;94182.19;;;11.35;33.29
68179;BME280;54998;42.656;23.382;2023-03-26T18:53:07;94177.22;;;11.34;33.45
68179;BME280;54998;42.656;23.382;2023-03-26T18:55:38;94177.38;;;11.07;34.02
68179;BME280;54998;42.656;23.382;2023-03-26T18:58:36;94176.09;;;10.95;33.80
68179;BME280;54998;42.656;23.382;2023-03-26T19:01:07;94167.72;;;11.01;33.36
68179;BME280;54998;42.656;23.382;2023-03-26T19:03:35;94160.53;;;11.05;33.18
68179;BME280;54998;42.656;23.382;2023-03-26T19:06:02;94157.97;;;11.13;32.74
68179;BME280;54998;42.656;23.382;2023-03-26T19:08:29;94152.03;;;11.13;32.66
68179;BME280;54998;42.656;23.382;2023-03-26T19:10:57;94140.94;;;11.12;32.76
68179;BME280;54998;42.656;23.382;2023-03-26T19:13:30;94141.91;;;11.19;32.65
68179;BME280;54998;42.656;23.382;2023-03-26T19:16:03;94133.56;;;11.17;32.61
68179;BME280;54998;42.656;23.382;2023-03-26T19:18:31;94134.84;;;11.13;33.02
68179;BME280;54998;42.656;23.382;2023-03-26T19:20:59;94136.94;;;11.18;32.94
68179;BME280;54998;42.656;23.382;2023-03-26T19:23:31;94141.59;;;10.98;32.77
68179;BME280;54998;42.656;23.382;2023-03-26T19:26:00;94141.53;;;10.57;33.78
68179;BME280;54998;42.656;23.382;2023-03-26T19:28:32;94132.84;;;10.41;33.88
68179;BME280;54998;42.656;23.382;2023-03-26T19:31:17;94135.78;;;10.20;34.45
68179;BME280;54998;42.656;23.382;2023-03-26T20:15:29;94104.41;;;9.84;36.22
68179;BME280;54998;42.656;23.382;2023-03-26T20:17:55;94101.97;;;9.74;36.57
68179;BME280;54998;42.656;23.382;2023-03-26T20:20:22;94102.25;;;9.63;37.35
68179;BME280;54998;42.656;23.382;2023-03-26T20:22:52;94089.91;;;9.66;36.76
68179;BME280;54998;42.656;23.382;2023-03-26T20:25:35;94099.31;;;9.58;37.11
68179;BME280;54998;42.656;23.382;2023-03-26T20:28:05;94089.06;;;9.58;36.88
68179;BME280;54998;42.656;23.382;2023-03-26T20:30:33;94082.31;;;9.49;37.29
68179;BME280;54998;42.656;23.382;2023-03-26T20:33:01;94090.31;;;9.45;37.40
68179;BME280;54998;42.656;23.382;2023-03-26T20:35:30;94089.34;;;9.20;37.80
68179;BME280;54998;42.656;23.382;2023-03-26T20:37:56;94092.28;;;9.34;37.42
68179;BME280;54998;42.656;23.382;2023-03-26T20:40:22;94086.38;;;9.33;37.68
68179;BME280;54998;42.656;23.382;2023-03-26T20:42:48;94074.94;;;9.45;37.28
68179;BME280;54998;42.656;23.382;2023-03-26T20:45:19;94068.66;;;9.40;37.16
68179;BME280;54998;42.656;23.382;2023-03-26T20:47:46;94076.78;;;9.35;37.40
68179;BME280;54998;42.656;23.382;2023-03-26T20:50:15;94085.00;;;9.47;36.86
68179;BME280;54998;42.656;23.382;2023-03-26T20:52:41;94078.63;;;9.51;36.25
68179;BME280;54998;42.656;23.382;2023-03-26T20:55:16;94074.34;;;9.60;36.14
68179;BME280;54998;42.656;23.382;2023-03-26T20:57:42;94061.25;;;9.63;35.89
68179;BME280;54998;42.656;23.382;2023-03-26T21:00:11;94072.94;;;9.65;35.92
68179;BME280;54998;42.656;23.382;2023-03-26T21:03:03;94067.50;;;9.69;35.26
68179;BME280;54998;42.656;23.382;2023-03-26T21:05:28;94072.28;;;9.63;35.76
68179;BME280;54998;42.656;23.382;2023-03-26T21:07:58;94067.97;;;9.64;35.79
68179;BME280;54998;42.656;23.382;2023-03-26T21:10:26;94067.81;;;9.65;35.49
68179;BME280;54998;42.656;23.382;2023-03-26T21:15:23;94049.72;;;9.67;35.54
68179;BME280;54998;42.656;23.382;2023-03-26T21:17:49;94060.09;;;9.57;36.02
68179;BME280;54998;42.656;23.382;2023-03-26T21:20:17;94052.94;;;9.35;36.83